Celje, Slovenia
Current Conditions -  °F | °C
As of 10:00 PM on Sunday 23 Nov 2014 (Local Time) from LJCE Reporting Station
Drizzle Drizzle  
Wind Chill: 36°   Ceiling: 300
Heat Index: 39°   Visibility: 2.5mi
Dew Point: 37°   Wind: 5mph
Humidity: 93%   Direction: 260°W
Pressure: 30.42"   Gusts: NA
Location:  46.24°N, 15.27°E
Report Text: LJCE 232000Z 26004KT 4000 BR -DZ OVC003 04/03 Q1030 RMK YLO
Loading
Personal Weather Stations






























Interactive Weather Map New forecast layout! Learn more

10-Day Weather Forecast

Advertisements
Track Severe Weather on mobile